Time;durP1;ratioP1;P1;durP2;ratioP2;P2;SDS_P1;SDS_P2;PMS_P1;PMS_P2;Temp;Humidity;BMP_temperature;BMP_pressure;BME280_temperature;BME280_humidity;BME280_pressure;Samples;Min_cycle;Max_cycle;Signal;HPM_P1;HPM_P2
2022/05/25 00:01:00;;;;;;;12.38;6.70;;;9.20;99.90;;;;;;4978284;28;20122;-85
2022/05/25 00:03:27;;;;;;;7.93;7.13;;;9.20;99.90;;;;;;5002818;28;20100;-85
2022/05/25 00:05:54;;;;;;;8.63;7.28;;;9.20;99.90;;;;;;4996547;28;20105;-84
2022/05/25 00:08:20;;;;;;;9.18;7.28;;;9.20;99.90;;;;;;4979133;28;20421;-86
2022/05/25 00:10:49;;;;;;;9.02;7.18;;;9.10;99.90;;;;;;4979843;28;20049;-84
2022/05/25 00:13:15;;;;;;;10.00;7.47;;;9.10;99.90;;;;;;4976915;28;20085;-85
2022/05/25 00:15:40;;;;;;;10.63;8.13;;;9.20;99.90;;;;;;5005144;28;20507;-86
2022/05/25 00:18:06;;;;;;;12.50;8.20;;;9.10;1.00;;;;;;4994086;28;20042;-85
2022/05/25 00:20:32;;;;;;;10.23;7.68;;;9.10;1.00;;;;;;4979291;28;20042;-85
2022/05/25 00:22:58;;;;;;;11.85;7.97;;;9.10;1.00;;;;;;4982371;28;20057;-85
2022/05/25 00:25:30;;;;;;;10.88;7.90;;;9.10;1.00;;;;;;4986794;28;20034;-85
2022/05/25 00:27:56;;;;;;;9.88;8.15;;;9.10;1.00;;;;;;4986162;28;20042;-85
2022/05/25 00:30:23;;;;;;;13.73;8.43;;;9.10;1.00;;;;;;5011512;28;20489;-85
2022/05/25 00:32:49;;;;;;;11.55;8.40;;;9.10;1.00;;;;;;4995238;28;20060;-85
2022/05/25 00:35:18;;;;;;;11.27;8.50;;;9.10;1.00;;;;;;4985888;28;20034;-86
2022/05/25 00:37:43;;;;;;;11.57;8.88;;;9.00;1.00;;;;;;5011589;28;20877;-86
2022/05/25 00:40:25;;;;;;;9.93;7.95;;;9.00;1.00;;;;;;4984094;28;20042;-86
2022/05/25 00:42:51;;;;;;;11.40;8.68;;;9.00;1.00;;;;;;4996952;28;20069;-85
2022/05/25 00:45:17;;;;;;;12.82;9.10;;;9.00;1.00;;;;;;4980083;28;20126;-85
2022/05/25 00:47:47;;;;;;;11.55;8.75;;;9.00;1.00;;;;;;5015352;28;20691;-85
2022/05/25 00:50:16;;;;;;;13.02;9.18;;;9.00;1.00;;;;;;4987243;28;20433;-86
2022/05/25 00:52:45;;;;;;;12.02;9.00;;;9.00;1.00;;;;;;5003178;28;20088;-86
2022/05/25 00:55:16;;;;;;;14.75;10.15;;;9.00;1.00;;;;;;4999854;28;20030;-85
2022/05/25 00:57:45;;;;;;;12.35;9.02;;;9.00;1.00;;;;;;4985887;28;20051;-85
2022/05/25 01:00:16;;;;;;;11.77;9.93;;;9.00;1.00;;;;;;4979541;28;20103;-85
2022/05/25 01:02:51;;;;;;;11.77;10.05;;;9.00;1.00;;;;;;5011899;28;20042;-85
2022/05/25 01:05:29;;;;;;;11.18;9.68;;;9.00;1.00;;;;;;4979182;28;20370;-85
2022/05/25 01:08:13;;;;;;;11.77;9.73;;;9.00;14.80;;;;;;5013045;28;20049;-85
2022/05/25 01:11:04;;;;;;;11.30;9.63;;;9.00;66.70;;;;;;5004467;28;20077;-83
2022/05/25 01:13:50;;;;;;;12.85;10.38;;;9.00;24.60;;;;;;4980613;28;20081;-85
2022/05/25 01:16:37;;;;;;;14.43;11.02;;;9.00;17.10;;;;;;4996711;28;20137;-84
2022/05/25 01:19:36;;;;;;;13.02;9.90;;;9.00;82.60;;;;;;4999326;28;20042;-85
2022/05/25 01:22:24;;;;;;;16.67;11.40;;;9.00;38.30;;;;;;5010348;28;20106;-85
2022/05/25 01:25:35;;;;;;;14.77;11.27;;;8.90;16.20;;;;;;5011864;28;20040;-85
2022/05/25 01:28:23;;;;;;;12.90;10.90;;;8.90;1.00;;;;;;4945274;28;20038;-85
2022/05/25 01:30:53;;;;;;;15.68;11.98;;;8.90;5.30;;;;;;4982255;28;20137;-85
2022/05/25 01:33:27;;;;;;;16.13;11.57;;;9.00;24.40;;;;;;4986926;28;20915;-85
2022/05/25 01:36:09;;;;;;;14.43;11.77;;;8.90;75.90;;;;;;4978182;28;20044;-85
2022/05/25 01:38:54;;;;;;;15.45;12.40;;;9.00;62.30;;;;;;4982027;28;20046;-85
2022/05/25 01:41:24;;;;;;;;;;;9.00;69.70;;;;;;5010485;28;20397;-84
2022/05/25 01:43:59;;;;;;;19.17;12.57;;;9.00;78.60;;;;;;4982725;28;19925;-85
2022/05/25 01:46:41;;;;;;;15.38;11.82;;;9.00;61.60;;;;;;5012685;28;20046;-85
2022/05/25 01:49:12;;;;;;;16.77;12.93;;;8.90;48.70;;;;;;4982762;28;20034;-84
2022/05/25 01:51:53;;;;;;;16.33;13.45;;;9.00;99.90;;;;;;4980152;28;20126;-84
2022/05/25 01:54:23;;;;;;;16.33;12.93;;;9.00;92.90;;;;;;5010247;28;20211;-84
2022/05/25 01:56:53;;;;;;;18.02;13.65;;;9.00;99.90;;;;;;4978710;28;20036;-85
2022/05/25 01:59:19;;;;;;;17.45;13.07;;;9.00;99.90;;;;;;4979701;28;20057;-84
2022/05/25 02:05:10;;;;;;;20.60;14.35;;;9.00;99.90;;;;;;4998839;28;20739;-85
2022/05/25 02:07:42;;;;;;;18.58;14.00;;;9.00;99.90;;;;;;4984074;28;20057;-85
2022/05/25 02:10:25;;;;;;;19.48;15.25;;;9.00;99.90;;;;;;5008275;28;20058;-85
2022/05/25 02:13:22;;;;;;;22.40;15.73;;;9.00;99.90;;;;;;5007410;28;20125;-84
2022/05/25 02:16:19;;;;;;;22.55;15.73;;;9.00;99.90;;;;;;4979236;28;20316;-84
2022/05/25 02:18:50;;;;;;;23.02;15.25;;;9.10;99.90;;;;;;4982409;28;20053;-84
2022/05/25 02:21:35;;;;;;;22.52;15.70;;;9.10;99.90;;;;;;4983825;28;20042;-85
2022/05/25 02:24:07;;;;;;;21.50;15.77;;;9.10;99.90;;;;;;5013054;28;20068;-84
2022/05/25 02:26:39;;;;;;;21.85;15.63;;;9.10;99.90;;;;;;4984145;28;20038;-85
2022/05/25 02:29:34;;;;;;;22.75;14.82;;;9.10;99.90;;;;;;4995851;28;20034;-85
2022/05/25 02:32:11;;;;;;;26.02;15.95;;;9.10;99.90;;;;;;4975729;28;20089;-85
2022/05/25 02:34:40;;;;;;;20.45;15.00;;;9.10;99.90;;;;;;5012279;28;20672;-85
2022/05/25 02:37:07;;;;;;;20.13;15.32;;;9.20;99.90;;;;;;4998257;28;20376;-85
2022/05/25 02:39:33;;;;;;;22.45;15.88;;;9.10;99.90;;;;;;5011706;28;20065;-85
2022/05/25 02:41:59;;;;;;;22.70;16.30;;;9.10;99.90;;;;;;5009533;28;20397;-85
2022/05/25 02:44:25;;;;;;;19.23;15.25;;;9.10;99.90;;;;;;4985666;28;20408;-85
2022/05/25 02:46:51;;;;;;;20.50;16.27;;;9.00;99.90;;;;;;4978433;28;20033;-84
2022/05/25 02:49:18;;;;;;;20.00;14.55;;;9.00;99.90;;;;;;4995167;28;20548;-85
2022/05/25 02:51:44;;;;;;;21.65;15.77;;;9.00;99.90;;;;;;5001193;28;20046;-84
2022/05/25 02:54:09;;;;;;;21.15;16.17;;;9.00;99.90;;;;;;4979682;28;20050;-84
2022/05/25 02:56:36;;;;;;;19.40;15.55;;;8.90;99.90;;;;;;4984621;28;20640;-83
2022/05/25 02:59:05;;;;;;;21.05;15.30;;;8.90;99.90;;;;;;4976379;28;20030;-84
2022/05/25 03:01:31;;;;;;;20.52;15.25;;;8.90;99.90;;;;;;4977896;28;20042;-85
2022/05/25 03:03:56;;;;;;;23.70;16.27;;;9.00;99.90;;;;;;4994962;28;20088;-85
2022/05/25 03:06:22;;;;;;;22.95;14.98;;;9.00;99.90;;;;;;4964337;28;20124;-85
2022/05/25 03:08:48;;;;;;;21.90;16.05;;;8.90;99.90;;;;;;4994347;28;20057;-85
2022/05/25 03:11:14;;;;;;;21.75;15.68;;;9.00;99.90;;;;;;4985527;28;20128;-85
2022/05/25 03:13:41;;;;;;;22.30;15.70;;;8.90;99.90;;;;;;4962068;28;20046;-84
2022/05/25 03:16:13;;;;;;;21.52;15.65;;;8.90;99.90;;;;;;4991138;28;20069;-84
2022/05/25 03:18:38;;;;;;;23.60;15.73;;;9.00;99.90;;;;;;4980527;28;20034;-85
2022/05/25 03:21:04;;;;;;;23.25;16.45;;;9.00;99.90;;;;;;4980839;28;20445;-85
2022/05/25 03:23:29;;;;;;;22.80;15.88;;;9.00;99.90;;;;;;4982137;28;20046;-85
2022/05/25 03:25:55;;;;;;;21.27;16.25;;;9.00;99.90;;;;;;4964078;28;20069;-85
2022/05/25 03:28:21;;;;;;;24.40;16.70;;;9.00;99.90;;;;;;4978968;28;20125;-84
2022/05/25 03:30:47;;;;;;;23.13;16.77;;;9.00;99.90;;;;;;4979827;28;20444;-85
2022/05/25 03:33:13;;;;;;;24.60;17.13;;;9.00;99.90;;;;;;4996106;28;20480;-85
2022/05/25 03:35:40;;;;;;;23.85;16.73;;;9.00;99.90;;;;;;4968009;28;20038;-85
2022/05/25 03:38:06;;;;;;;21.45;15.80;;;9.10;99.90;;;;;;4993424;28;20035;-85
2022/05/25 03:40:32;;;;;;;20.67;16.23;;;9.10;99.90;;;;;;5010681;28;20065;-85
2022/05/25 03:42:58;;;;;;;23.13;16.88;;;9.20;99.90;;;;;;4995346;28;20473;-85
2022/05/25 03:45:23;;;;;;;23.70;15.65;;;9.10;99.90;;;;;;5000363;28;20057;-85
2022/05/25 03:47:49;;;;;;;22.15;16.75;;;9.10;99.90;;;;;;4991608;28;20072;-85
2022/05/25 03:50:18;;;;;;;20.83;15.57;;;9.10;99.90;;;;;;4964919;28;20108;-84
2022/05/25 03:52:45;;;;;;;24.95;16.42;;;9.10;99.90;;;;;;5005600;28;20042;-85
2022/05/25 03:55:11;;;;;;;22.38;15.52;;;9.10;99.90;;;;;;4997789;28;20520;-85
2022/05/25 03:57:37;;;;;;;24.40;16.10;;;9.20;99.90;;;;;;4984645;28;20076;-85
2022/05/25 04:00:05;;;;;;;22.60;15.60;;;9.20;99.90;;;;;;4986217;28;20042;-84
2022/05/25 04:02:31;;;;;;;22.10;15.65;;;9.30;99.90;;;;;;5001083;28;20046;-84
2022/05/25 04:05:08;;;;;;;20.73;15.63;;;9.30;99.90;;;;;;5011146;28;20049;-85
2022/05/25 04:07:46;;;;;;;25.10;15.52;;;9.30;99.90;;;;;;4998910;28;20043;-83
2022/05/25 04:10:15;;;;;;;18.95;14.88;;;9.30;99.90;;;;;;4971216;28;20041;-84
2022/05/25 04:12:42;;;;;;;22.70;15.68;;;9.40;99.90;;;;;;4973034;28;20142;-85
2022/05/25 04:15:10;;;;;;;20.75;15.23;;;9.50;99.90;;;;;;5001415;28;20070;-85
2022/05/25 04:17:35;;;;;;;22.23;15.55;;;9.50;99.90;;;;;;4986189;28;20038;-84
2022/05/25 04:20:03;;;;;;;18.13;14.32;;;9.50;99.90;;;;;;4997895;28;20064;-84
2022/05/25 04:22:29;;;;;;;18.90;14.73;;;9.60;99.90;;;;;;4996040;28;20355;-85
2022/05/25 04:24:55;;;;;;;18.13;14.52;;;9.60;99.90;;;;;;4996757;28;20042;-84
2022/05/25 04:27:21;;;;;;;17.85;13.90;;;9.70;99.90;;;;;;4983910;28;20280;-84
2022/05/25 04:29:47;;;;;;;18.60;14.57;;;9.70;99.90;;;;;;4991032;28;20046;-84
2022/05/25 04:32:12;;;;;;;18.90;13.63;;;9.80;99.90;;;;;;4987842;28;20109;-85
2022/05/25 04:34:38;;;;;;;16.20;14.32;;;9.90;99.90;;;;;;4974546;28;20125;-85
2022/05/25 04:39:48;;;;;;;17.88;14.30;;;10.10;69.80;;;;;;4998688;28;20480;-85
2022/05/25 04:42:14;;;;;;;19.65;13.98;;;10.20;47.60;;;;;;4997020;28;20415;-85
2022/05/25 04:44:39;;;;;;;17.17;13.35;;;10.20;22.20;;;;;;4998388;28;20173;-84
2022/05/25 04:47:08;;;;;;;17.70;13.68;;;10.20;1.00;;;;;;4966064;28;20042;-84
2022/05/25 04:49:35;;;;;;;17.40;13.38;;;10.40;1.00;;;;;;4996846;28;20101;-84
2022/05/25 04:52:02;;;;;;;14.55;12.05;;;10.40;1.00;;;;;;4987308;28;20066;-84
2022/05/25 04:54:28;;;;;;;17.00;13.38;;;10.50;1.00;;;;;;4986286;28;20034;-84
2022/05/25 04:59:38;;;;;;;15.93;12.13;;;10.70;1.00;;;;;;4982203;28;20076;-84
2022/05/25 05:02:03;;;;;;;16.05;11.57;;;10.80;1.00;;;;;;4968380;28;20054;-85
2022/05/25 05:04:29;;;;;;;22.33;13.60;;;10.90;1.00;;;;;;4967159;28;20161;-84
2022/05/25 05:06:55;;;;;;;15.25;11.93;;;10.90;99.90;;;;;;4997974;28;20102;-84
2022/05/25 05:09:20;;;;;;;17.15;12.50;;;11.00;99.90;;;;;;4984804;28;20511;-85
2022/05/25 05:11:47;;;;;;;15.50;12.63;;;11.10;99.90;;;;;;4969466;28;20531;-84
2022/05/25 05:14:16;;;;;;;14.73;11.57;;;11.10;99.90;;;;;;5009768;28;20497;-84
2022/05/25 05:16:41;;;;;;;12.88;11.40;;;11.20;99.90;;;;;;4997271;28;20051;-85
2022/05/25 05:19:08;;;;;;;14.85;11.60;;;11.20;99.90;;;;;;4998225;28;20343;-84
2022/05/25 05:21:33;;;;;;;15.68;11.57;;;11.30;99.90;;;;;;4988182;28;20520;-84
2022/05/25 05:23:59;;;;;;;16.25;12.35;;;11.40;99.90;;;;;;4999222;28;20046;-85
2022/05/25 05:26:25;;;;;;;14.80;11.90;;;11.50;99.90;;;;;;4998827;28;20046;-84
2022/05/25 05:28:53;;;;;;;14.75;11.48;;;11.50;99.90;;;;;;4965207;28;20069;-84
2022/05/25 05:31:19;;;;;;;14.52;12.40;;;11.70;99.90;;;;;;4999294;28;20045;-85
2022/05/25 05:33:45;;;;;;;16.65;11.68;;;11.70;99.90;;;;;;4998751;28;20374;-85
2022/05/25 05:36:21;;;;;;;12.93;10.95;;;11.70;99.90;;;;;;5008896;28;20064;-85
2022/05/25 05:38:53;;;;;;;13.50;11.25;;;11.80;99.90;;;;;;5010732;28;20046;-85
2022/05/25 05:41:23;;;;;;;15.20;12.23;;;11.90;99.90;;;;;;5010451;28;20038;-85
2022/05/25 05:43:49;;;;;;;14.90;12.23;;;11.90;99.90;;;;;;5007057;28;20141;-84
2022/05/25 05:46:19;;;;;;;14.50;11.95;;;12.10;99.90;;;;;;4987800;28;20478;-85
2022/05/25 05:48:45;;;;;;;12.90;11.20;;;12.10;99.90;;;;;;5007925;28;20154;-84
2022/05/25 05:51:11;;;;;;;13.85;11.43;;;12.20;99.90;;;;;;4971643;28;20054;-84
2022/05/25 05:53:39;;;;;;;13.57;11.75;;;12.20;99.90;;;;;;4980649;28;20763;-84
2022/05/25 05:56:04;;;;;;;15.40;12.23;;;12.30;99.90;;;;;;5010021;28;20548;-85
2022/05/25 05:58:30;;;;;;;13.88;11.18;;;12.40;99.90;;;;;;4991465;28;20389;-84
2022/05/25 06:00:56;;;;;;;13.88;11.43;;;12.50;99.90;;;;;;4983739;28;20189;-84
2022/05/25 06:03:21;;;;;;;15.75;11.60;;;12.60;99.90;;;;;;4982194;28;20049;-85
2022/05/25 06:05:47;;;;;;;13.23;11.20;;;12.60;99.90;;;;;;4981254;28;20054;-84
2022/05/25 06:08:21;;;;;;;14.65;11.98;;;12.70;99.90;;;;;;5009024;28;20038;-85
2022/05/25 06:10:47;;;;;;;13.70;11.75;;;12.80;99.90;;;;;;4971262;28;20050;-84
2022/05/25 06:13:13;;;;;;;15.65;11.55;;;12.80;99.90;;;;;;4985860;28;20034;-84
2022/05/25 06:21:13;;;;;;;15.35;11.85;;;13.10;99.90;;;;;;4980717;28;20042;-84
2022/05/25 06:23:39;;;;;;;15.10;11.85;;;13.10;99.90;;;;;;4983971;28;20500;-85
2022/05/25 06:26:05;;;;;;;15.40;11.63;;;13.20;99.90;;;;;;5008824;28;20576;-84
2022/05/25 06:28:30;;;;;;;14.00;12.02;;;13.30;99.90;;;;;;5010178;28;20073;-84
2022/05/25 06:30:56;;;;;;;15.23;11.30;;;13.40;99.90;;;;;;5002986;28;20030;-85
2022/05/25 06:33:22;;;;;;;13.32;11.25;;;13.50;99.90;;;;;;4984764;28;20045;-85
2022/05/25 06:35:47;;;;;;;14.60;12.27;;;13.70;99.90;;;;;;4989768;28;20041;-85
2022/05/25 06:38:13;;;;;;;18.08;11.57;;;13.70;99.90;;;;;;4984649;28;20038;-85
2022/05/25 06:40:39;;;;;;;14.27;10.93;;;13.80;99.90;;;;;;4979979;28;20434;-85
2022/05/25 06:43:05;;;;;;;12.63;10.48;;;13.90;99.90;;;;;;5010297;28;20553;-85
2022/05/25 06:45:30;;;;;;;15.52;11.07;;;13.90;99.90;;;;;;5001716;28;20839;-84
2022/05/25 06:47:56;;;;;;;14.05;11.00;;;14.00;99.90;;;;;;5000525;28;20089;-85
2022/05/25 06:50:22;;;;;;;15.32;10.30;;;14.00;99.90;;;;;;4993279;28;20035;-84
2022/05/25 06:52:48;;;;;;;13.25;10.20;;;14.00;99.90;;;;;;4982303;28;20515;-85
2022/05/25 06:55:13;;;;;;;13.75;9.65;;;14.10;99.90;;;;;;4999704;28;20049;-85
2022/05/25 06:57:40;;;;;;;11.68;9.40;;;14.10;99.90;;;;;;4982484;28;20042;-84
2022/05/25 07:00:09;;;;;;;14.70;9.50;;;14.20;99.90;;;;;;4986636;28;20092;-85
2022/05/25 07:02:35;;;;;;;13.73;9.25;;;14.30;99.90;;;;;;4986827;28;20691;-84
2022/05/25 07:05:01;;;;;;;13.25;9.52;;;14.40;99.90;;;;;;5011509;28;20485;-85
2022/05/25 07:07:26;;;;;;;10.90;8.70;;;14.40;96.50;;;;;;4987088;28;20049;-85
2022/05/25 07:09:52;;;;;;;13.02;9.10;;;14.60;99.90;;;;;;4984664;28;20042;-84
2022/05/25 07:12:18;;;;;;;11.80;9.18;;;14.70;78.40;;;;;;5002457;28;20030;-84
2022/05/25 07:14:44;;;;;;;11.32;8.40;;;14.80;75.20;;;;;;4985794;28;20046;-85
2022/05/25 07:17:09;;;;;;;9.93;8.00;;;14.80;14.10;;;;;;4992277;28;20034;-85
2022/05/25 07:19:36;;;;;;;11.80;8.20;;;15.00;47.90;;;;;;4999626;28;20069;-85
2022/05/25 07:22:07;;;;;;;13.25;8.27;;;15.10;70.40;;;;;;4968823;28;20038;-85
2022/05/25 07:24:33;;;;;;;10.52;8.23;;;15.30;82.80;;;;;;5011802;28;20060;-84
2022/05/25 07:26:58;;;;;;;11.40;7.80;;;15.20;1.00;;;;;;4984927;28;20117;-84
2022/05/25 07:29:30;;;;;;;8.82;7.75;;;15.40;1.00;;;;;;4988555;28;20035;-84
2022/05/25 07:32:01;;;;;;;10.63;7.63;;;15.50;1.20;;;;;;4981269;28;20102;-85
2022/05/25 07:34:30;;;;;;;7.55;6.03;;;15.60;1.00;;;;;;5014065;28;20121;-85
2022/05/25 07:37:12;;;;;;;8.32;6.95;;;15.60;1.00;;;;;;5015629;28;20492;-85
2022/05/25 07:39:47;;;;;;;8.93;7.43;;;15.80;1.00;;;;;;5009056;28;20374;-85
2022/05/25 07:42:14;;;;;;;10.95;7.25;;;15.80;1.00;;;;;;5010696;28;20137;-84
2022/05/25 07:44:48;;;;;;;10.05;6.82;;;16.10;1.00;;;;;;4992247;28;20117;-84
2022/05/25 07:47:14;;;;;;;9.05;6.88;;;16.20;1.00;;;;;;4987294;28;20544;-84
2022/05/25 07:49:40;;;;;;;10.23;6.95;;;16.10;99.90;;;;;;4989751;28;20042;-84
2022/05/25 07:52:06;;;;;;;10.55;6.50;;;16.30;1.00;;;;;;4980765;28;20034;-84
2022/05/25 07:54:32;;;;;;;7.97;6.20;;;16.40;1.00;;;;;;4995752;28;20053;-84
2022/05/25 07:56:59;;;;;;;8.32;6.53;;;16.40;99.90;;;;;;4984346;28;20038;-84
2022/05/25 07:59:25;;;;;;;9.50;6.47;;;16.30;99.90;;;;;;4985313;28;20178;-84
2022/05/25 08:07:33;;;;;;;7.82;5.38;;;16.40;1.00;;;;;;4989924;28;20398;-84
2022/05/25 08:10:15;;;;;;;8.38;6.50;;;16.30;99.90;;;;;;5003736;28;20112;-84
2022/05/25 08:12:42;;;;;;;10.73;6.93;;;16.50;1.00;;;;;;4963669;28;20654;-84
2022/05/25 08:15:10;;;;;;;7.80;5.90;;;16.80;1.00;;;;;;5009019;28;20299;-84
2022/05/25 08:17:36;;;;;;;7.90;5.55;;;16.90;99.90;;;;;;4979640;28;20137;-84
2022/05/25 08:20:04;;;;;;;8.10;6.50;;;17.30;99.90;;;;;;5016294;28;20545;-85
2022/05/25 08:22:29;;;;;;;8.27;5.47;;;17.40;1.00;;;;;;5010093;28;20485;-84
2022/05/25 08:24:58;;;;;;;6.88;4.75;;;17.60;99.90;;;;;;5013062;28;20042;-84
2022/05/25 08:27:25;;;;;;;5.50;3.70;;;17.60;99.90;;;;;;4982763;28;20065;-84
2022/05/25 08:29:50;;;;;;;6.00;4.30;;;17.70;99.90;;;;;;4982039;28;20054;-85
2022/05/25 08:32:16;;;;;;;6.78;3.97;;;17.60;99.90;;;;;;5014328;28;20112;-84
2022/05/25 08:34:43;;;;;;;6.65;3.95;;;17.90;99.90;;;;;;4999896;28;20035;-84
2022/05/25 08:37:10;;;;;;;8.50;4.25;;;18.20;99.90;;;;;;4982540;28;20051;-84
2022/05/25 08:39:36;;;;;;;6.97;4.40;;;18.20;99.90;;;;;;4994190;28;20121;-84
2022/05/25 08:42:08;;;;;;;6.68;3.85;;;18.60;99.90;;;;;;5008703;28;20596;-85
2022/05/25 08:44:36;;;;;;;5.55;4.15;;;18.70;99.90;;;;;;5001821;28;20040;-85
2022/05/25 08:47:05;;;;;;;5.13;4.10;;;18.90;99.90;;;;;;4985244;28;20038;-85
2022/05/25 08:49:42;;;;;;;6.70;4.22;;;18.70;99.90;;;;;;5018738;28;20042;-84
2022/05/25 08:52:18;;;;;;;5.82;3.05;;;18.40;99.90;;;;;;4997751;28;20053;-84
2022/05/25 08:54:43;;;;;;;3.60;2.78;;;18.40;99.90;;;;;;4995828;28;20125;-84
2022/05/25 08:57:17;;;;;;;6.25;3.30;;;18.20;99.90;;;;;;4984928;28;20564;-84
2022/05/25 08:59:59;;;;;;;5.50;3.73;;;18.70;99.90;;;;;;4988063;28;20038;-84
2022/05/25 09:02:45;;;;;;;5.63;4.10;;;18.50;99.90;;;;;;4999345;28;20096;-84
2022/05/25 09:05:10;;;;;;;;;;;18.70;99.90;;;;;;5014737;28;20044;-85
2022/05/25 09:07:42;;;;;;;5.40;3.63;;;18.90;99.90;;;;;;4995940;28;20576;-84
2022/05/25 09:10:11;;;;;;;4.60;3.05;;;19.00;99.90;;;;;;5011701;28;20498;-84
2022/05/25 09:13:00;;;;;;;6.22;3.75;;;18.90;99.90;;;;;;5010290;28;20111;-84
2022/05/25 09:15:30;;;;;;;4.35;3.40;;;19.00;99.90;;;;;;5001346;28;20030;-85
2022/05/25 09:18:06;;;;;;;4.55;3.28;;;18.80;99.90;;;;;;4994356;28;20030;-84
2022/05/25 09:20:38;;;;;;;9.88;3.25;;;18.70;99.90;;;;;;5011938;28;20046;-84
2022/05/25 09:23:06;;;;;;;4.38;2.70;;;18.70;99.90;;;;;;4992446;28;20366;-84
2022/05/25 09:25:34;;;;;;;3.85;2.92;;;18.70;99.90;;;;;;5016283;28;20080;-84
2022/05/25 09:28:13;;;;;;;4.72;2.63;;;19.00;99.90;;;;;;4985353;28;20104;-85
2022/05/25 09:30:42;;;;;;;6.75;2.70;;;19.40;99.90;;;;;;4999788;28;20100;-84
2022/05/25 09:33:35;;;;;;;4.88;2.92;;;18.90;99.90;;;;;;4983456;28;20400;-84
2022/05/25 09:36:29;;;;;;;5.45;2.67;;;19.50;99.90;;;;;;4983618;28;20030;-84
2022/05/25 09:39:05;;;;;;;3.40;2.63;;;19.30;99.90;;;;;;4981059;28;20280;-85
2022/05/25 09:41:32;;;;;;;3.33;2.60;;;19.20;99.90;;;;;;5007078;28;20312;-84
2022/05/25 09:44:02;;;;;;;4.03;2.67;;;19.50;99.90;;;;;;4982936;28;20133;-84
2022/05/25 09:46:42;;;;;;;6.28;2.97;;;19.30;99.90;;;;;;4985023;28;20077;-83
2022/05/25 09:49:15;;;;;;;5.80;3.03;;;19.10;99.90;;;;;;5013272;28;20521;-84
2022/05/25 09:51:51;;;;;;;3.70;2.60;;;18.80;99.90;;;;;;5012569;28;20416;-84
2022/05/25 09:54:39;;;;;;;3.88;2.88;;;18.50;99.90;;;;;;5014571;28;20050;-84
2022/05/25 09:57:09;;;;;;;4.72;2.60;;;18.20;99.90;;;;;;5000183;28;20256;-85
2022/05/25 09:59:41;;;;;;;4.50;2.95;;;18.10;99.90;;;;;;5016442;28;20038;-84
2022/05/25 10:02:33;;;;;;;3.67;2.55;;;18.00;99.90;;;;;;4984918;28;20045;-84
2022/05/25 10:05:18;;;;;;;3.90;2.72;;;17.80;99.90;;;;;;4980914;28;20035;-84
2022/05/25 10:07:55;;;;;;;4.07;2.80;;;17.50;99.90;;;;;;4986900;28;20093;-83
2022/05/25 10:10:33;;;;;;;4.28;3.38;;;17.40;99.90;;;;;;4984699;28;20122;-84
2022/05/25 10:13:16;;;;;;;3.08;2.60;;;17.50;99.90;;;;;;5012427;28;20420;-84
2022/05/25 10:15:42;;;;;;;3.85;3.00;;;17.50;99.90;;;;;;5002872;28;20038;-84
2022/05/25 10:18:13;;;;;;;3.95;3.17;;;17.60;99.90;;;;;;4984571;28;20053;-84
2022/05/25 10:20:42;;;;;;;6.03;2.88;;;17.70;99.90;;;;;;5000189;28;20052;-85
2022/05/25 10:23:19;;;;;;;5.20;2.80;;;17.80;99.90;;;;;;4986256;28;20448;-85
2022/05/25 10:25:48;;;;;;;4.68;2.80;;;18.00;99.90;;;;;;4983071;28;20481;-84
2022/05/25 10:28:27;;;;;;;4.70;2.30;;;17.70;99.90;;;;;;4994614;28;20050;-85
2022/05/25 10:36:58;;;;;;;5.50;2.53;;;17.50;99.90;;;;;;5010725;28;20053;-84
2022/05/25 10:39:30;;;;;;;4.47;2.33;;;17.30;99.90;;;;;;4982275;28;20080;-84
2022/05/25 10:42:14;;;;;;;4.25;2.63;;;17.40;99.90;;;;;;5000077;28;20079;-85
2022/05/25 10:44:51;;;;;;;3.60;2.30;;;17.30;99.90;;;;;;4997020;28;20091;-84
2022/05/25 10:47:46;;;;;;;4.55;2.58;;;17.50;99.90;;;;;;5011099;28;20111;-84
2022/05/25 10:50:25;;;;;;;3.70;2.58;;;17.70;99.90;;;;;;4994487;28;20165;-85
2022/05/25 10:53:21;;;;;;;2.95;2.25;;;17.80;99.90;;;;;;4994307;28;20034;-84
2022/05/25 10:56:08;;;;;;;5.60;2.80;;;18.10;99.90;;;;;;4954810;28;20457;-85
2022/05/25 10:58:43;;;;;;;4.88;2.78;;;18.90;99.90;;;;;;4976650;28;20530;-84
2022/05/25 11:01:24;;;;;;;3.60;2.30;;;18.70;99.90;;;;;;4994317;28;20576;-84
2022/05/25 11:04:11;;;;;;;3.45;2.15;;;18.10;99.90;;;;;;4980945;28;20045;-85
2022/05/25 11:06:54;;;;;;;3.85;2.05;;;17.80;99.90;;;;;;5002876;28;20040;-85
2022/05/25 11:09:39;;;;;;;3.58;2.42;;;17.60;99.90;;;;;;4998514;28;20174;-85
2022/05/25 11:12:26;;;;;;;4.38;2.55;;;17.40;99.90;;;;;;5015571;28;20512;-85
2022/05/25 11:15:07;;;;;;;4.70;3.00;;;17.80;99.90;;;;;;5016057;28;20070;-84
2022/05/25 11:17:49;;;;;;;3.97;3.13;;;19.10;99.90;;;;;;4988315;28;20050;-85
2022/05/25 11:20:38;;;;;;;5.03;3.33;;;18.80;99.90;;;;;;4997612;28;20034;-85
2022/05/25 11:23:25;;;;;;;4.57;3.10;;;18.40;99.90;;;;;;5004307;28;20473;-85
2022/05/25 11:26:21;;;;;;;4.63;3.08;;;18.40;99.90;;;;;;5011751;28;20130;-84
2022/05/25 11:29:10;;;;;;;6.05;3.30;;;19.00;99.90;;;;;;4987088;28;20471;-85
2022/05/25 11:31:54;;;;;;;5.53;3.40;;;19.40;99.90;;;;;;5016265;28;20113;-85
2022/05/25 11:34:32;;;;;;;5.90;3.53;;;19.70;99.90;;;;;;5014583;28;20073;-84
2022/05/25 11:37:28;;;;;;;5.93;4.32;;;19.80;99.90;;;;;;5013188;28;20125;-84
2022/05/25 11:40:02;;;;;;;5.88;4.03;;;19.60;95.00;;;;;;4997163;28;20047;-85
2022/05/25 11:43:01;;;;;;;5.20;3.83;;;19.80;99.90;;;;;;4991844;28;20047;-84
2022/05/25 11:45:58;;;;;;;7.03;4.15;;;19.00;94.20;;;;;;5011646;28;20042;-84
2022/05/25 11:49:04;;;;;;;8.18;5.15;;;19.20;99.40;;;;;;5000629;28;20041;-85
2022/05/25 11:51:45;;;;;;;7.30;4.70;;;18.80;93.00;;;;;;4969785;28;20086;-84
2022/05/25 11:54:42;;;;;;;8.75;4.90;;;18.60;98.30;;;;;;4984337;28;20053;-85
2022/05/25 11:57:34;;;;;;;9.88;4.70;;;18.10;99.90;;;;;;4986147;28;20054;-85
2022/05/25 12:00:29;;;;;;;6.90;4.60;;;17.30;99.90;;;;;;5013345;28;20381;-85
2022/05/25 12:03:36;;;;;;;12.70;3.50;;;17.00;99.90;;;;;;4968294;28;20129;-86
2022/05/25 12:06:06;;;;;;;4.93;3.17;;;16.90;99.90;;;;;;4949627;28;20559;-85
2022/05/25 12:08:59;;;;;;;4.00;3.33;;;17.60;99.90;;;;;;4958591;28;20668;-84
2022/05/25 12:11:48;;;;;;;3.38;2.95;;;18.20;99.90;;;;;;4998431;28;20436;-85
2022/05/25 12:14:23;;;;;;;4.13;3.03;;;18.80;99.90;;;;;;5011162;28;20076;-84
2022/05/25 12:16:51;;;;;;;4.35;3.10;;;19.10;99.90;;;;;;4998964;28;20414;-85
2022/05/25 12:19:27;;;;;;;4.55;3.70;;;19.20;99.90;;;;;;5008226;28;20081;-86
2022/05/25 12:22:03;;;;;;;5.90;3.50;;;19.10;99.90;;;;;;5007260;28;20482;-86
2022/05/25 12:24:39;;;;;;;6.28;3.97;;;19.80;99.90;;;;;;5012899;28;20065;-85
2022/05/25 12:27:10;;;;;;;4.10;3.40;;;19.60;99.90;;;;;;4984965;28;20049;-85
2022/05/25 12:29:49;;;;;;;4.78;3.60;;;19.70;99.90;;;;;;4988265;28;20065;-85
2022/05/25 12:32:15;;;;;;;5.22;3.38;;;19.80;99.90;;;;;;5014560;28;20038;-85
2022/05/25 12:34:50;;;;;;;5.15;3.00;;;19.90;99.90;;;;;;5014253;28;20052;-85
2022/05/25 12:37:35;;;;;;;;;;;20.30;99.90;;;;;;4986376;28;20042;-85
2022/05/25 12:40:03;;;;;;;5.20;2.90;;;20.40;99.90;;;;;;5014450;28;19931;-85
2022/05/25 12:42:29;;;;;;;5.47;2.55;;;20.20;99.90;;;;;;4994338;28;20124;-85
2022/05/25 12:51:02;;;;;;;4.95;2.70;;;20.30;99.90;;;;;;4985779;28;20196;-85
2022/05/25 12:53:55;;;;;;;4.63;2.60;;;20.00;99.90;;;;;;5012866;28;20038;-85
2022/05/25 12:56:24;;;;;;;4.60;2.90;;;19.70;99.90;;;;;;4978400;28;20082;-86
2022/05/25 12:58:52;;;;;;;6.60;2.38;;;19.70;99.90;;;;;;5002434;28;20579;-85
2022/05/25 13:01:27;;;;;;;7.82;1.98;;;19.70;99.90;;;;;;4992863;28;21142;-85
2022/05/25 13:03:56;;;;;;;8.32;1.77;;;19.80;96.10;;;;;;4973239;28;20050;-85
2022/05/25 13:06:38;;;;;;;4.05;1.40;;;20.00;93.10;;;;;;5009958;28;20056;-85
2022/05/25 13:09:03;;;;;;;4.22;1.02;;;20.30;81.80;;;;;;4967264;28;20046;-85
2022/05/25 13:11:37;;;;;;;6.10;1.30;;;21.20;90.20;;;;;;4974821;28;20533;-85
2022/05/25 13:14:06;;;;;;;6.43;1.40;;;20.90;70.20;;;;;;4981030;28;20093;-85
2022/05/25 13:16:45;;;;;;;7.45;1.25;;;20.90;57.40;;;;;;4982746;28;20051;-85
2022/05/25 13:19:32;;;;;;;3.58;1.20;;;20.40;63.10;;;;;;4999323;28;20188;-85
2022/05/25 13:22:04;;;;;;;3.00;1.00;;;20.10;51.70;;;;;;5010440;28;20142;-85
2022/05/25 13:24:54;;;;;;;3.95;1.40;;;19.90;47.80;;;;;;4985869;28;20038;-85
2022/05/25 13:27:37;;;;;;;3.30;0.90;;;19.70;44.80;;;;;;4977706;28;20154;-84
2022/05/25 13:30:09;;;;;;;2.75;0.90;;;19.60;43.70;;;;;;5005446;28;20053;-84
2022/05/25 13:32:50;;;;;;;4.07;1.50;;;19.20;33.70;;;;;;4996523;28;20133;-85
2022/05/25 13:35:18;;;;;;;6.90;1.10;;;19.10;39.70;;;;;;5010979;28;20116;-85
2022/05/25 13:37:49;;;;;;;4.40;1.00;;;18.90;38.90;;;;;;5011876;28;20058;-85
2022/05/25 13:40:15;;;;;;;1.52;0.90;;;19.50;49.60;;;;;;5012365;28;20046;-85
2022/05/25 13:42:46;;;;;;;3.63;1.15;;;19.70;33.90;;;;;;4984424;28;20335;-85